Carnigan, Georgia
Current Conditions -  °F | °C
As of 11:15 AM on Monday 22 Dec 2014 (Local Time) from KBQK Reporting Station
Overcast Overcast  
Wind Chill: 54°   Ceiling: 200
Heat Index: 54°   Visibility: 0.25mi
Dew Point: 52°   Wind: 7mph
Humidity: 94%   Direction: 50°NE
Pressure: 30.02"   Gusts: NA
Location:  31.4309°N, 81.4437°W
Report Text: KBQK 221615Z AUTO 05006KT 1/4SM OVC002 12/11 A3002 RMK AO1 LTG DSNT W AND NW
Loading
Personal Weather Stations






























Interactive Weather Map New forecast layout! Learn more

10-Day Weather Forecast

Advertisements
Track Severe Weather on mobile